createdAt,value
2023-04-16T00:00:14.599Z,94794.78
2023-04-16T00:02:42.717Z,94794.78
2023-04-16T00:05:13.576Z,94789.38
2023-04-16T00:07:42.262Z,94777.25
2023-04-16T00:10:10.595Z,94764.38
2023-04-16T00:12:38.617Z,94783.38
2023-04-16T00:15:07.358Z,94780.50
2023-04-16T00:17:35.382Z,94777.81
2023-04-16T00:20:03.578Z,94783.63
2023-04-16T00:22:32.983Z,94774.03
2023-04-16T00:25:00.915Z,94783.84
2023-04-16T00:27:28.853Z,94786.84
2023-04-16T00:29:56.846Z,94785.16
2023-04-16T00:32:24.953Z,94785.94
2023-04-16T00:34:53.001Z,94789.44
2023-04-16T00:37:20.975Z,94787.41
2023-04-16T00:39:50.321Z,94789.69
2023-04-16T00:42:18.237Z,94776.00
2023-04-16T00:44:46.203Z,94764.41
2023-04-16T00:47:14.205Z,94760.38
2023-04-16T00:49:42.560Z,94775.06
2023-04-16T00:52:12.685Z,94782.28
2023-04-16T00:54:41.131Z,94746.97
2023-04-16T00:57:11.200Z,94774.47
2023-04-16T00:59:39.145Z,94788.66
2023-04-16T01:02:07.419Z,94762.16
2023-04-16T01:04:36.464Z,94775.00
2023-04-16T01:07:04.517Z,94775.88
2023-04-16T01:09:32.408Z,94747.84
2023-04-16T01:12:00.476Z,94754.84
2023-04-16T01:14:29.772Z,94771.56
2023-04-16T01:16:57.758Z,94781.09
2023-04-16T01:19:25.767Z,94763.38
2023-04-16T01:21:55.044Z,94788.47
2023-04-16T01:24:23.041Z,94773.13
2023-04-16T01:26:50.966Z,94775.81
2023-04-16T01:29:18.837Z,94781.53
2023-04-16T01:31:47.490Z,94778.63
2023-04-16T01:34:15.537Z,94732.66
2023-04-16T01:36:43.519Z,94774.78
2023-04-16T01:39:15.750Z,94748.56
2023-04-16T01:41:43.987Z,94770.66
2023-04-16T01:44:12.003Z,94750.56
2023-04-16T01:46:40.796Z,94765.81
2023-04-16T01:49:08.981Z,94762.34
2023-04-16T01:51:37.037Z,94758.78
2023-04-16T01:54:05.105Z,94766.41
2023-04-16T01:56:35.554Z,94764.59
2023-04-16T01:59:03.521Z,94762.38
2023-04-16T02:01:31.860Z,94690.06
2023-04-16T02:04:00.318Z,94709.69
2023-04-16T02:06:28.644Z,94739.84
2023-04-16T02:08:56.705Z,94762.50
2023-04-16T02:11:24.684Z,94743.66
2023-04-16T02:13:54.026Z,94762.03
2023-04-16T02:16:21.953Z,94773.38
2023-04-16T02:18:49.985Z,94746.13
2023-04-16T02:21:18.026Z,94751.72
2023-04-16T02:23:47.978Z,94730.75
2023-04-16T02:26:15.954Z,94755.75
2023-04-16T02:28:43.883Z,94751.28
2023-04-16T02:31:14.981Z,94756.00
2023-04-16T02:33:42.945Z,94727.06
2023-04-16T02:36:12.929Z,94762.28
2023-04-16T02:38:40.940Z,94752.97
2023-04-16T02:41:08.955Z,94747.66
2023-04-16T02:43:36.993Z,94754.84
2023-04-16T02:46:05.089Z,94746.22
2023-04-16T02:48:34.497Z,94749.25
2023-04-16T02:51:02.473Z,94739.59
2023-04-16T02:53:30.435Z,94717.88
2023-04-16T02:55:58.461Z,94741.09
2023-04-16T02:58:27.569Z,94738.63
2023-04-16T03:00:56.089Z,94743.22
2023-04-16T03:03:24.130Z,94739.84
2023-04-16T03:05:53.504Z,94736.47
2023-04-16T03:08:21.439Z,94737.16
2023-04-16T03:10:49.432Z,94744.88
2023-04-16T03:13:17.397Z,94739.06
2023-04-16T03:15:49.769Z,94739.28
2023-04-16T03:18:17.859Z,94709.59
2023-04-16T03:20:45.956Z,94750.38
2023-04-16T03:23:15.297Z,94738.72
2023-04-16T03:25:46.709Z,94749.69
2023-04-16T03:28:14.712Z,94752.75
2023-04-16T03:30:42.629Z,94753.41
2023-04-16T03:33:10.812Z,94742.41
2023-04-16T03:35:38.834Z,94758.25
2023-04-16T03:38:06.807Z,94734.09
2023-04-16T03:40:36.155Z,94754.09
2023-04-16T03:43:04.111Z,94760.00
2023-04-16T03:45:32.045Z,94744.19
2023-04-16T03:47:59.994Z,94759.66
2023-04-16T03:50:27.974Z,94758.88
2023-04-16T03:52:56.033Z,94756.38
2023-04-16T03:55:23.966Z,94759.19
2023-04-16T03:57:53.270Z,94713.72
2023-04-16T04:00:21.386Z,94769.59
2023-04-16T04:02:49.390Z,94715.72
2023-04-16T04:05:17.741Z,94768.00
2023-04-16T04:07:45.790Z,94766.25
2023-04-16T04:10:14.125Z,94766.78
2023-04-16T04:12:42.069Z,94777.09
2023-04-16T04:15:13.083Z,94743.09
2023-04-16T04:17:41.136Z,94777.59
2023-04-16T04:20:09.785Z,94779.97
2023-04-16T04:22:37.739Z,94765.94
2023-04-16T04:25:06.437Z,94734.44
2023-04-16T04:27:34.379Z,94775.28
2023-04-16T04:30:02.392Z,94788.50
2023-04-16T04:32:31.750Z,94794.34
2023-04-16T04:35:01.294Z,94706.84
2023-04-16T04:37:30.604Z,94803.50
2023-04-16T04:39:58.546Z,94794.78
2023-04-16T04:42:27.303Z,94799.72
2023-04-16T04:44:55.249Z,94783.13
2023-04-16T04:47:23.256Z,94802.41
2023-04-16T04:49:52.792Z,94801.50
2023-04-16T04:52:21.610Z,94808.91
2023-04-16T04:54:49.609Z,94758.09
2023-04-16T04:57:17.690Z,94803.22
2023-04-16T04:59:45.704Z,94807.47
2023-04-16T05:02:13.723Z,94806.78
2023-04-16T05:04:41.926Z,94812.06
2023-04-16T05:07:11.317Z,94797.91
2023-04-16T05:09:39.243Z,94806.22
2023-04-16T05:12:07.269Z,94751.72
2023-04-16T05:14:36.366Z,94780.66
2023-04-16T05:17:04.384Z,94800.75
2023-04-16T05:19:32.505Z,94798.81
2023-04-16T05:22:02.500Z,94789.97
2023-04-16T05:24:31.843Z,94752.84
2023-04-16T05:26:59.789Z,94805.34
2023-04-16T05:29:27.720Z,94793.44
2023-04-16T05:31:55.672Z,94770.56
2023-04-16T05:34:23.660Z,94801.03
2023-04-16T05:36:51.609Z,94796.09
2023-04-16T05:39:19.912Z,94802.56
2023-04-16T05:41:49.288Z,94758.16
2023-04-16T05:44:17.213Z,94796.97
2023-04-16T05:46:45.176Z,94800.38
2023-04-16T05:49:13.105Z,94800.59
2023-04-16T05:51:41.210Z,94784.31
2023-04-16T05:54:09.139Z,94792.00
2023-04-16T05:56:37.162Z,94805.28
2023-04-16T05:59:06.531Z,94805.72
2023-04-16T06:01:35.748Z,94799.22
2023-04-16T06:04:04.831Z,94792.72
2023-04-16T06:06:33.121Z,94805.66
2023-04-16T06:09:01.220Z,94805.41
2023-04-16T06:11:30.931Z,94790.50
2023-04-16T06:13:58.880Z,94801.44
2023-04-16T06:16:28.261Z,94804.38
2023-04-16T06:18:56.588Z,94799.78
2023-04-16T06:21:24.734Z,94797.38
2023-04-16T06:23:52.875Z,94790.94
2023-04-16T06:26:20.882Z,94781.97
2023-04-16T06:28:49.090Z,94787.41
2023-04-16T06:31:17.163Z,94767.25
2023-04-16T06:33:46.764Z,94791.75
2023-04-16T06:36:14.991Z,94729.63
2023-04-16T06:38:43.012Z,94791.06
2023-04-16T06:41:11.045Z,94784.94
2023-04-16T06:43:39.178Z,94783.91
2023-04-16T06:46:07.128Z,94790.28
2023-04-16T06:48:35.110Z,94779.38
2023-04-16T06:51:04.649Z,94789.91
2023-04-16T06:53:33.112Z,94774.75
2023-04-16T06:56:01.089Z,94784.78
2023-04-16T06:58:29.550Z,94791.50
2023-04-16T07:00:57.713Z,94766.06
2023-04-16T07:03:26.480Z,94791.88
2023-04-16T07:05:54.896Z,94764.09
2023-04-16T07:08:26.350Z,94773.84
2023-04-16T07:10:55.005Z,94783.41
2023-04-16T07:13:23.264Z,94728.22
2023-04-16T07:15:51.249Z,94777.34
2023-04-16T07:18:20.706Z,94782.00
2023-04-16T07:20:49.477Z,94785.84
2023-04-16T07:23:17.463Z,94792.22
2023-04-16T07:25:46.816Z,94788.31
2023-04-16T07:28:16.704Z,94785.19
2023-04-16T07:30:44.889Z,94784.09
2023-04-16T07:33:12.818Z,94752.13
2023-04-16T07:35:40.772Z,94776.13
2023-04-16T07:38:08.698Z,94783.41
2023-04-16T07:40:38.614Z,94788.75
2023-04-16T07:43:08.368Z,94776.69
2023-04-16T07:45:36.410Z,94761.94
2023-04-16T07:48:05.450Z,94775.88
2023-04-16T07:50:33.715Z,94776.22
2023-04-16T07:53:01.755Z,94782.38
2023-04-16T07:55:29.758Z,94775.16
2023-04-16T07:57:57.688Z,94772.84
2023-04-16T08:00:27.993Z,94780.59
2023-04-16T08:02:56.581Z,94751.59
2023-04-16T08:05:24.785Z,94773.59
2023-04-16T08:07:52.816Z,94768.59
2023-04-16T08:10:20.851Z,94764.31
2023-04-16T08:12:48.767Z,94755.19
2023-04-16T08:15:16.849Z,94766.94
2023-04-16T08:17:46.379Z,94766.63
2023-04-16T08:20:17.020Z,94770.06
2023-04-16T08:22:47.301Z,94764.09
2023-04-16T08:25:15.654Z,94758.72
2023-04-16T08:27:43.806Z,94753.28
2023-04-16T08:30:12.295Z,94754.81
2023-04-16T08:32:40.415Z,94759.22
2023-04-16T08:35:10.970Z,94755.66
2023-04-16T08:37:38.987Z,94752.88
2023-04-16T08:40:08.274Z,94747.34
2023-04-16T08:42:45.062Z,94743.44
2023-04-16T08:45:17.929Z,94749.75
2023-04-16T08:47:48.172Z,94736.97
2023-04-16T08:50:18.935Z,94745.09
2023-04-16T08:52:52.066Z,94739.38
2023-04-16T08:55:22.582Z,94732.75
2023-04-16T08:57:54.608Z,94730.28
2023-04-16T09:00:22.961Z,94711.69
2023-04-16T09:02:51.844Z,94727.56
2023-04-16T09:05:25.554Z,94682.03
2023-04-16T09:07:54.322Z,94717.09
2023-04-16T09:10:23.052Z,94728.16
2023-04-16T09:12:51.307Z,94718.41
2023-04-16T09:15:22.197Z,94705.53
2023-04-16T09:17:50.200Z,94711.25
2023-04-16T09:20:18.211Z,94721.44
2023-04-16T09:22:48.481Z,94719.09
2023-04-16T09:25:16.676Z,94713.72
2023-04-16T09:27:45.460Z,94709.69
2023-04-16T09:30:24.056Z,94706.22
2023-04-16T09:32:53.245Z,94712.84
2023-04-16T09:35:21.711Z,94724.94
2023-04-16T09:37:58.987Z,94714.06
2023-04-16T09:40:30.522Z,94713.38
2023-04-16T09:43:00.971Z,94688.16
2023-04-16T09:45:32.858Z,94713.75
2023-04-16T09:48:05.726Z,94709.41
2023-04-16T09:50:33.805Z,94709.66
2023-04-16T09:53:04.690Z,94674.00
2023-04-16T09:55:33.814Z,94699.53
2023-04-16T09:58:02.733Z,94700.31
2023-04-16T10:00:31.919Z,94699.44
2023-04-16T10:03:06.874Z,94698.34
2023-04-16T10:05:35.684Z,94656.13
2023-04-16T10:08:12.294Z,94688.38
2023-04-16T10:10:40.517Z,94684.97
2023-04-16T10:13:08.964Z,94662.88
2023-04-16T10:15:37.306Z,94680.56
2023-04-16T10:18:06.426Z,94676.81
2023-04-16T10:20:34.589Z,94666.25
2023-04-16T10:23:04.871Z,94665.16
2023-04-16T10:25:33.732Z,94676.03
2023-04-16T10:28:01.921Z,94673.75
2023-04-16T10:30:30.601Z,94658.22
2023-04-16T10:33:00.563Z,94676.72
2023-04-16T10:35:28.774Z,94662.00
2023-04-16T10:37:58.129Z,94668.06
2023-04-16T10:40:29.536Z,94642.91
2023-04-16T10:42:58.266Z,94637.97
2023-04-16T10:45:33.693Z,94618.75
2023-04-16T10:48:08.719Z,94632.66
2023-04-16T10:50:39.769Z,94672.88
2023-04-16T10:53:25.774Z,94657.22
2023-04-16T10:56:13.065Z,94659.28
2023-04-16T10:58:41.232Z,94658.09
2023-04-16T11:01:13.437Z,94652.91
2023-04-16T11:03:48.451Z,94641.00
2023-04-16T11:06:18.068Z,94642.53
2023-04-16T11:08:54.432Z,94633.25
2023-04-16T11:11:25.004Z,94638.94
2023-04-16T11:13:58.006Z,94602.94
2023-04-16T11:16:28.466Z,94633.22
2023-04-16T11:18:57.228Z,94636.53
2023-04-16T11:21:26.727Z,94619.25
2023-04-16T11:23:55.182Z,94629.97
2023-04-16T11:26:28.912Z,94625.44
2023-04-16T11:28:57.509Z,94611.41
2023-04-16T11:31:27.345Z,94619.84
2023-04-16T11:33:57.884Z,94608.16
2023-04-16T11:36:27.837Z,94613.22
2023-04-16T11:39:03.787Z,94584.13
2023-04-16T11:41:33.231Z,94601.84
2023-04-16T11:44:01.411Z,94597.63
2023-04-16T11:46:40.150Z,94590.41
2023-04-16T11:49:08.349Z,94593.47
2023-04-16T11:51:41.154Z,94588.53
2023-04-16T11:54:12.315Z,94568.25
2023-04-16T11:56:47.882Z,94596.31
2023-04-16T11:59:17.748Z,94579.13
2023-04-16T12:01:49.755Z,94584.38
2023-04-16T12:04:20.322Z,94576.78
2023-04-16T12:07:11.374Z,94566.91
2023-04-16T12:09:41.060Z,94565.75
2023-04-16T12:12:31.179Z,94561.06
2023-04-16T12:15:03.267Z,94560.34
2023-04-16T12:17:31.526Z,94511.34
2023-04-16T12:20:00.787Z,94549.19
2023-04-16T12:22:30.473Z,94546.56
2023-04-16T12:25:03.109Z,94546.22
2023-04-16T12:27:47.052Z,94517.97
2023-04-16T12:30:16.220Z,94537.31
2023-04-16T12:32:46.056Z,94535.47
2023-04-16T12:35:14.521Z,94516.63
2023-04-16T12:37:42.635Z,94538.28
2023-04-16T12:40:11.518Z,94534.78
2023-04-16T12:42:39.612Z,94532.66
2023-04-16T12:45:09.614Z,94519.94
2023-04-16T12:47:37.504Z,94524.47
2023-04-16T12:50:06.085Z,94527.09
2023-04-16T12:52:34.084Z,94525.75
2023-04-16T12:55:03.063Z,94522.94
2023-04-16T12:57:31.183Z,94530.47
2023-04-16T13:00:02.117Z,94520.53
2023-04-16T13:02:32.535Z,94518.50
2023-04-16T13:05:00.666Z,94503.56
2023-04-16T13:07:29.195Z,94494.31
2023-04-16T13:09:57.118Z,94508.44
2023-04-16T13:12:25.060Z,94497.78
2023-04-16T13:14:53.070Z,94491.34
2023-04-16T13:17:21.116Z,94485.13
2023-04-16T13:19:50.446Z,94497.25
2023-04-16T13:22:18.682Z,94484.91
2023-04-16T13:24:46.983Z,94473.72
2023-04-16T13:27:16.175Z,94477.63
2023-04-16T13:29:44.696Z,94495.22
2023-04-16T13:32:13.838Z,94500.03
2023-04-16T13:34:42.051Z,94496.97
2023-04-16T13:37:11.469Z,94508.41
2023-04-16T13:39:39.411Z,94505.78
2023-04-16T13:42:07.523Z,94512.88
2023-04-16T13:44:35.589Z,94507.53
2023-04-16T13:47:03.753Z,94517.66
2023-04-16T13:49:35.649Z,94520.06
2023-04-16T13:52:04.071Z,94527.06
2023-04-16T13:54:33.605Z,94530.56
2023-04-16T13:57:03.157Z,94483.13
2023-04-16T13:59:31.225Z,94504.91
2023-04-16T14:01:59.232Z,94495.59
2023-04-16T14:04:27.306Z,94544.22
2023-04-16T14:06:55.503Z,94545.78
2023-04-16T14:09:23.479Z,94562.13
2023-04-16T14:11:53.039Z,94568.34
2023-04-16T14:14:21.042Z,94567.19
2023-04-16T14:16:49.276Z,94572.22
2023-04-16T14:19:17.568Z,94527.78
2023-04-16T14:21:45.813Z,94579.97
2023-04-16T14:24:14.173Z,94549.53
2023-04-16T14:26:44.254Z,94584.53
2023-04-16T14:29:13.936Z,94579.81
2023-04-16T14:31:42.159Z,94552.94
2023-04-16T14:34:10.414Z,94443.31
2023-04-16T14:36:38.440Z,94556.19
2023-04-16T14:39:06.591Z,94567.78
2023-04-16T14:41:34.641Z,94580.84
2023-04-16T14:44:04.287Z,94589.28
2023-04-16T14:46:33.774Z,94536.91
2023-04-16T14:49:02.160Z,94588.31
2023-04-16T14:51:30.171Z,94589.78
2023-04-16T14:53:58.382Z,94609.03
2023-04-16T14:56:26.495Z,94590.25
2023-04-16T14:58:54.496Z,94599.47
2023-04-16T15:01:22.622Z,94591.69
2023-04-16T15:03:52.202Z,94596.25
2023-04-16T15:06:20.350Z,94560.81
2023-04-16T15:08:48.400Z,94589.69
2023-04-16T15:11:16.398Z,94591.59
2023-04-16T15:13:44.381Z,94593.03
2023-04-16T15:16:13.081Z,94582.09
2023-04-16T15:18:41.185Z,94607.22
2023-04-16T15:21:12.526Z,94615.03
2023-04-16T15:23:40.866Z,94578.66
2023-04-16T15:26:08.987Z,94607.47
2023-04-16T15:28:36.987Z,94625.25
2023-04-16T15:31:05.233Z,94629.88
2023-04-16T15:33:33.443Z,94632.50
2023-04-16T15:36:01.521Z,94633.47
2023-04-16T15:38:31.361Z,94633.47
2023-04-16T15:41:00.956Z,94637.31
2023-04-16T15:43:29.993Z,94637.22
2023-04-16T15:45:57.988Z,94631.72
2023-04-16T15:48:26.104Z,94638.69
2023-04-16T15:50:55.761Z,94625.44
2023-04-16T15:53:24.127Z,94609.34
2023-04-16T15:55:53.978Z,94629.28
2023-04-16T15:58:23.069Z,94637.69
2023-04-16T16:00:51.054Z,94633.31
2023-04-16T16:03:19.592Z,94625.78
2023-04-16T16:05:48.602Z,94632.31
2023-04-16T16:08:16.885Z,94636.22
2023-04-16T16:10:44.905Z,94634.88
2023-04-16T16:13:18.120Z,94632.53
2023-04-16T16:15:47.189Z,94598.22
2023-04-16T16:18:15.190Z,94623.88
2023-04-16T16:20:43.327Z,94633.72
2023-04-16T16:23:11.611Z,94636.22
2023-04-16T16:25:39.661Z,94623.16
2023-04-16T16:28:08.089Z,94603.25
2023-04-16T16:30:37.374Z,94651.91
2023-04-16T16:33:05.628Z,94630.44
2023-04-16T16:35:33.810Z,94646.78
2023-04-16T16:38:01.926Z,94645.81
2023-04-16T16:40:30.353Z,94630.19
2023-04-16T16:42:58.621Z,94648.06
2023-04-16T16:45:27.287Z,94660.41
2023-04-16T16:47:58.940Z,94672.88
2023-04-16T16:50:27.009Z,94628.50
2023-04-16T16:52:54.949Z,94661.34
2023-04-16T16:55:23.212Z,94633.19
2023-04-16T16:57:51.366Z,94649.53
2023-04-16T17:00:21.767Z,94652.88
2023-04-16T17:02:51.385Z,94657.09
2023-04-16T17:05:21.332Z,94650.84
2023-04-16T17:07:49.663Z,94646.25
2023-04-16T17:10:20.543Z,94661.66
2023-04-16T17:12:49.257Z,94666.78
2023-04-16T17:15:21.199Z,94632.34
2023-04-16T17:17:50.001Z,94641.47
2023-04-16T17:20:18.161Z,94642.66
2023-04-16T17:22:47.474Z,94667.31
2023-04-16T17:25:15.920Z,94676.88
2023-04-16T17:27:44.119Z,94648.41
2023-04-16T17:30:12.739Z,94675.31
2023-04-16T17:32:40.867Z,94667.06
2023-04-16T17:35:11.085Z,94664.94
2023-04-16T17:37:39.253Z,94667.78
2023-04-16T17:40:10.246Z,94665.66
2023-04-16T17:42:38.962Z,94681.25
2023-04-16T17:45:09.826Z,94676.81
2023-04-16T17:47:38.239Z,94685.59
2023-04-16T17:50:07.583Z,94686.66
2023-04-16T17:52:37.691Z,94682.47
2023-04-16T17:55:06.105Z,94690.78
2023-04-16T17:57:35.835Z,94687.16
2023-04-16T18:00:05.754Z,94675.31
2023-04-16T18:02:34.136Z,94690.84
2023-04-16T18:05:02.326Z,94683.38
2023-04-16T18:07:30.441Z,94692.97
2023-04-16T18:09:58.784Z,94673.81
2023-04-16T18:12:26.843Z,94680.56
2023-04-16T18:14:56.355Z,94687.34
2023-04-16T18:17:24.447Z,94687.72
2023-04-16T18:19:52.655Z,94676.91
2023-04-16T18:22:21.425Z,94618.38
2023-04-16T18:24:49.661Z,94680.56
2023-04-16T18:27:21.553Z,94661.28
2023-04-16T18:29:50.176Z,94678.59
2023-04-16T18:32:20.833Z,94692.97
2023-04-16T18:34:49.297Z,94652.94
2023-04-16T18:37:17.645Z,94590.41
2023-04-16T18:39:45.886Z,94694.81
2023-04-16T18:42:14.045Z,94691.22
2023-04-16T18:44:42.447Z,94690.53
2023-04-16T18:47:10.633Z,94692.19
2023-04-16T18:49:40.142Z,94687.13
2023-04-16T18:52:08.851Z,94688.97
2023-04-16T18:54:38.084Z,94685.13
2023-04-16T18:57:08.835Z,94688.34
2023-04-16T18:59:37.003Z,94692.13
2023-04-16T19:02:05.129Z,94694.44
2023-04-16T19:04:33.294Z,94644.25
2023-04-16T19:07:02.798Z,94664.56
2023-04-16T19:09:31.121Z,94605.41
2023-04-16T19:11:59.159Z,94682.72
2023-04-16T19:14:27.361Z,94699.19
2023-04-16T19:16:57.941Z,94695.09
2023-04-16T19:19:25.940Z,94692.03
2023-04-16T19:21:54.269Z,94696.25
2023-04-16T19:24:23.732Z,94698.66
2023-04-16T19:26:51.690Z,94687.72
2023-04-16T19:29:19.670Z,94692.28
2023-04-16T19:31:48.248Z,94673.47
2023-04-16T19:34:16.847Z,94690.63
2023-04-16T19:36:45.559Z,94635.66
2023-04-16T19:39:13.580Z,94678.63
2023-04-16T19:41:42.852Z,94681.75
2023-04-16T19:44:11.089Z,94676.91
2023-04-16T19:46:39.037Z,94680.72
2023-04-16T19:49:07.419Z,94681.59
2023-04-16T19:51:35.606Z,94646.47
2023-04-16T19:54:03.577Z,94672.34
2023-04-16T19:56:31.607Z,94686.28
2023-04-16T19:59:02.174Z,94688.97
2023-04-16T20:01:31.228Z,94682.44
2023-04-16T20:03:59.296Z,94682.88
2023-04-16T20:06:27.825Z,94679.53
2023-04-16T20:08:56.746Z,94673.38
2023-04-16T20:11:24.813Z,94670.50
2023-04-16T20:13:53.062Z,94676.19
2023-04-16T20:16:24.119Z,94656.84
2023-04-16T20:18:54.350Z,94678.19
2023-04-16T20:21:22.783Z,94623.22
2023-04-16T20:23:50.745Z,94683.72
2023-04-16T20:26:19.385Z,94679.84
2023-04-16T20:28:47.602Z,94686.50
2023-04-16T20:31:15.734Z,94660.25
2023-04-16T20:33:45.024Z,94653.69
2023-04-16T20:36:13.245Z,94666.38
2023-04-16T20:38:42.435Z,94683.94
2023-04-16T20:41:20.971Z,94681.16
2023-04-16T20:43:53.045Z,94654.84
2023-04-16T20:46:24.420Z,94686.44
2023-04-16T20:48:54.080Z,94687.63
2023-04-16T20:51:22.559Z,94685.72
2023-04-16T20:53:52.268Z,94679.63
2023-04-16T20:56:20.630Z,94692.75
2023-04-16T20:58:48.697Z,94685.81
2023-04-16T21:01:18.486Z,94681.94
2023-04-16T21:03:46.709Z,94674.50
2023-04-16T21:06:17.751Z,94675.34
2023-04-16T21:08:45.776Z,94667.09
2023-04-16T21:11:13.732Z,94676.06
2023-04-16T21:13:41.750Z,94672.06
2023-04-16T21:16:12.477Z,94668.44
2023-04-16T21:18:40.875Z,94674.47
2023-04-16T21:21:08.895Z,94673.63
2023-04-16T21:23:38.398Z,94651.00
2023-04-16T21:26:06.412Z,94670.34
2023-04-16T21:28:34.382Z,94667.00
2023-04-16T21:31:02.309Z,94674.63
2023-04-16T21:33:30.603Z,94635.84
2023-04-16T21:35:58.671Z,94680.47
2023-04-16T21:38:26.671Z,94664.56
2023-04-16T21:40:56.740Z,94672.03
2023-04-16T21:43:25.159Z,94665.69
2023-04-16T21:45:53.924Z,94652.72
2023-04-16T21:48:21.903Z,94675.44
2023-04-16T21:50:56.121Z,94668.13
2023-04-16T21:53:24.063Z,94658.28
2023-04-16T21:55:52.344Z,94663.41
2023-04-16T21:58:21.769Z,94667.97
2023-04-16T22:00:49.799Z,94662.19
2023-04-16T22:03:18.757Z,94673.88
2023-04-16T22:05:47.076Z,94661.50
2023-04-16T22:08:24.035Z,94673.09
2023-04-16T22:10:52.789Z,94673.53
2023-04-16T22:13:22.843Z,94660.28
2023-04-16T22:15:50.855Z,94644.47
2023-04-16T22:18:19.057Z,94664.13
2023-04-16T22:20:47.314Z,94661.06
2023-04-16T22:23:15.879Z,94658.44
2023-04-16T22:25:46.245Z,94655.47
2023-04-16T22:28:14.215Z,94654.78
2023-04-16T22:30:43.536Z,94661.31
2023-04-16T22:33:11.579Z,94656.69
2023-04-16T22:35:39.881Z,94649.00
2023-04-16T22:38:07.837Z,94647.47
2023-04-16T22:40:35.873Z,94642.81
2023-04-16T22:43:03.806Z,94636.78
2023-04-16T22:45:31.784Z,94642.81
2023-04-16T22:48:01.214Z,94648.16
2023-04-16T22:50:31.471Z,94630.94
2023-04-16T22:52:59.535Z,94639.53
2023-04-16T22:55:27.604Z,94638.59
2023-04-16T22:57:55.646Z,94637.06
2023-04-16T23:00:24.962Z,94635.91
2023-04-16T23:02:53.038Z,94584.59
2023-04-16T23:05:22.606Z,94630.00
2023-04-16T23:07:50.621Z,94632.13
2023-04-16T23:10:18.702Z,94640.66
2023-04-16T23:12:46.683Z,94630.13
2023-04-16T23:15:14.607Z,94594.63
2023-04-16T23:17:42.683Z,94635.31
2023-04-16T23:20:12.263Z,94631.50
2023-04-16T23:22:41.898Z,94627.63
2023-04-16T23:25:10.995Z,94630.44
2023-04-16T23:27:39.073Z,94629.66
2023-04-16T23:30:08.316Z,94585.81
2023-04-16T23:32:36.331Z,94623.03
2023-04-16T23:35:04.364Z,94626.00
2023-04-16T23:37:32.449Z,94620.53
2023-04-16T23:40:01.885Z,94621.31
2023-04-16T23:42:29.834Z,94600.34
2023-04-16T23:44:57.849Z,94610.38
2023-04-16T23:47:25.830Z,94612.88
2023-04-16T23:49:53.852Z,94604.34
2023-04-16T23:52:21.972Z,94612.34
2023-04-16T23:54:49.926Z,94605.66
2023-04-16T23:57:19.183Z,94551.84
2023-04-16T23:59:47.154Z,94601.31
